Aérodrome :
LOGIN :

S'inscrire | Disclaimer

   EN    FR    IT 

 










Légende :    VFR   VFR Marginal   IFR   IFR Intensif   IFR Très Intensif
Visi : 
Plafond : 
>= 8 km
>= 3000ft
5 à 8 km
1000 à 3000 ft
1500m à 5 km
500 à 1000 ft
800 à 1500m
200 à 500 ft
< 800m
< 200 ft
Symboles :   Orages  Brouillard  Fortes neiges  Fortes précipitations  Vent > 20 kt
SIGMETs :   Divers  Orages  Givrage  Turbulence  Onde Orograph.  Cendres Volcan.







- Altitude de l'aérodrome : 2044 ft


ETSA - Landsberg-Lech AB

DERNIER METAR :
  • 220520Z 23013KT 9999 -RA BKN013 BKN070 08/06 Q1015 GRN BLU TEMPO GRN

METARs EXPIRÉS :
  • 220500Z 23016KT 9999 BKN013 BKN070 OVC100 08/06 Q1015 GRN
  • 220420Z 23016KT 9999 SCT013 OVC070 08/06 Q1015 BLU
  • 220320Z 23014KT 9999 BKN013 OVC072 08/06 Q1015 GRN

TAF TAF ETSA
Valide du 22 à 06h jusqu'au 22 à 15h UTC


220500Z 2206/2215 24015G25KT 9999 NSW SCT015 BKN050
TEMPO 2206/2211 25018G30KT 6000 -RA BKN012
TEMPO 2211/2215 26020G35KT 4000 RADZ BKN008 BY ETGL
Pas de NOTAMs connus pour ce terrain.



MET'MAP, la Météo Aéronautique d'un coup d'oeil ! - Copyright ORBIFLY Décembre 2007 - Disclaimer

ORBIFLY MET'MAP TEAM :

Programmation & Développement : Alexandra Zaïnal
Conception & Développement : Baudouin d'Aumeries
Co-Programmation & Développement : Marc-Olivier Méhu
Soutien technique & logistique : Manuel Goepfert

Contact : metmap@orbifly.com




SOURCES & CREDITS :

   NOAA